Timberlake, North Carolina
Current Conditions -  °F | °C
As of 1:15 PM on Friday 28 Nov 2014 (Local Time) from KTDF Reporting Station
Clear Clear  
Wind Chill: 38°   Ceiling: Unl
Heat Index: 41°   Visibility: 10mi
Dew Point: 19°   Wind: 5mph
Humidity: 42%   Direction: 310°NW
Pressure: 30.3"   Gusts: NA
Location:  36.29°N, 78.95°W
Report Text: KTDF 281815Z AUTO 31004KT 10SM CLR 05/M07 A3030 RMK AO2
Loading
Personal Weather Stations






























Interactive Weather Map New forecast layout! Learn more

10-Day Weather Forecast

Advertisements
Track Severe Weather on mobile